Time;durP1;ratioP1;P1;durP2;ratioP2;P2;SDS_P1;SDS_P2;PMS_P1;PMS_P2;Temp;Humidity;BMP_temperature;BMP_pressure;BME280_temperature;BME280_humidity;BME280_pressure;Samples;Min_cycle;Max_cycle;Signal;HPM_P1;HPM_P2
2023/10/14 00:01:10;;;;;;;8.68;2.72;;;19.70;99.90;;;;;;4979706;28;20301;-76
2023/10/14 00:03:36;;;;;;;5.15;3.30;;;19.80;99.90;;;;;;4979851;28;20218;-76
2023/10/14 00:06:06;;;;;;;3.47;2.75;;;19.80;99.90;;;;;;4970146;28;20181;-76
2023/10/14 00:08:33;;;;;;;4.85;2.72;;;19.70;99.90;;;;;;4975715;28;20214;-76
2023/10/14 00:11:07;;;;;;;3.08;2.22;;;19.70;99.90;;;;;;4964055;28;20226;-76
2023/10/14 00:13:42;;;;;;;7.38;3.20;;;19.60;99.90;;;;;;4974300;28;20567;-76
2023/10/14 00:18:58;;;;;;;4.30;2.83;;;19.50;99.90;;;;;;4974585;28;20202;-76
2023/10/14 00:21:25;;;;;;;6.13;2.90;;;19.50;99.90;;;;;;4974267;28;20182;-73
2023/10/14 00:23:55;;;;;;;4.95;3.00;;;19.40;99.90;;;;;;4973388;28;20175;-74
2023/10/14 00:26:22;;;;;;;4.20;2.53;;;19.40;99.90;;;;;;4972157;28;20198;-74
2023/10/14 00:28:54;;;;;;;7.70;3.28;;;19.40;99.90;;;;;;4973077;28;20202;-74
2023/10/14 00:31:21;;;;;;;6.43;2.55;;;19.40;99.90;;;;;;4962750;28;20212;-74
2023/10/14 00:33:47;;;;;;;7.20;2.75;;;19.40;99.90;;;;;;4977798;28;20202;-73
2023/10/14 00:36:16;;;;;;;5.28;2.60;;;19.40;99.90;;;;;;4972468;28;20253;-74
2023/10/14 00:38:45;;;;;;;3.97;2.40;;;19.50;99.90;;;;;;4980952;28;20178;-74
2023/10/14 00:41:12;;;;;;;3.80;1.98;;;19.50;99.90;;;;;;4976269;28;20210;-74
2023/10/14 00:43:41;;;;;;;4.82;2.50;;;19.60;99.90;;;;;;4976960;28;20262;-74
2023/10/14 00:46:14;;;;;;;4.30;2.55;;;19.60;99.90;;;;;;4977386;28;20202;-74
2023/10/14 00:48:46;;;;;;;3.78;2.80;;;19.60;99.90;;;;;;4975515;28;20711;-74
2023/10/14 00:51:15;;;;;;;4.72;2.17;;;19.60;99.90;;;;;;4973348;28;20555;-75
2023/10/14 00:53:53;;;;;;;7.72;2.63;;;19.60;99.90;;;;;;4977086;28;20179;-75
2023/10/14 00:56:28;;;;;;;4.35;2.55;;;19.60;99.90;;;;;;4973851;28;20201;-74
2023/10/14 00:58:59;;;;;;;5.78;2.60;;;19.60;99.90;;;;;;4967490;28;20205;-75
2023/10/14 01:01:30;;;;;;;5.25;2.53;;;19.60;99.90;;;;;;4972202;28;20305;-75
2023/10/14 01:04:48;;;;;;;7.47;2.90;;;19.60;99.90;;;;;;4966151;28;20253;-75
2023/10/14 01:09:52;;;;;;;5.57;2.35;;;19.60;99.90;;;;;;4974767;28;20225;-75
2023/10/14 01:12:16;;;;;;;3.15;2.00;;;19.60;99.90;;;;;;4978861;28;20198;-75
2023/10/14 01:14:46;;;;;;;3.65;2.40;;;19.60;99.90;;;;;;4972800;28;20192;-75
2023/10/14 01:17:21;;;;;;;4.75;2.42;;;19.60;99.90;;;;;;4966569;28;20296;-75
2023/10/14 01:19:47;;;;;;;3.25;2.13;;;19.60;99.90;;;;;;4976112;28;20210;-75
2023/10/14 01:22:13;;;;;;;4.55;2.20;;;19.60;99.90;;;;;;4990801;28;20210;-75
2023/10/14 01:24:41;;;;;;;6.78;2.50;;;19.70;99.90;;;;;;4975738;28;20238;-75
2023/10/14 01:27:07;;;;;;;4.07;1.98;;;19.60;99.90;;;;;;4975124;28;20165;-74
2023/10/14 01:29:39;;;;;;;3.53;2.22;;;19.60;99.90;;;;;;4973261;28;20202;-74
2023/10/14 01:32:42;;;;;;;4.53;2.90;;;19.60;99.90;;;;;;4971850;28;20714;-75
2023/10/14 01:35:53;;;;;;;5.13;2.22;;;19.60;99.90;;;;;;4967881;28;20206;-75
2023/10/14 01:37:55;;;;;;;3.10;2.38;;;19.60;99.90;;;;;;4965898;28;20197;-73
2023/10/14 01:42:48;;;;;;;4.57;2.63;;;19.50;99.90;;;;;;4977442;28;20210;-74
2023/10/14 01:45:20;;;;;;;5.32;2.47;;;19.50;99.90;;;;;;4980548;28;20220;-75
2023/10/14 01:47:50;;;;;;;9.20;2.90;;;19.40;99.90;;;;;;4967737;28;20688;-74
2023/10/14 01:50:16;;;;;;;3.35;2.00;;;19.40;99.90;;;;;;4976178;28;20252;-75
2023/10/14 01:52:42;;;;;;;3.88;2.25;;;19.50;99.90;;;;;;4975141;28;20635;-74
2023/10/14 01:55:09;;;;;;;7.00;2.90;;;19.50;99.90;;;;;;4976900;28;20543;-75
2023/10/14 01:57:36;;;;;;;8.10;2.22;;;19.40;99.90;;;;;;4975105;28;20216;-73
2023/10/14 02:00:24;;;;;;;4.32;2.55;;;19.40;99.90;;;;;;4978169;28;20244;-74
2023/10/14 02:02:58;;;;;;;5.82;2.80;;;19.30;99.90;;;;;;4975904;28;20825;-75
2023/10/14 02:05:25;;;;;;;4.55;2.30;;;19.30;99.90;;;;;;4974522;28;20210;-75
2023/10/14 02:07:52;;;;;;;4.95;2.08;;;19.30;99.90;;;;;;4974690;28;20210;-75
2023/10/14 02:10:18;;;;;;;4.45;2.15;;;19.20;99.90;;;;;;4974148;28;20204;-75
2023/10/14 02:12:44;;;;;;;4.88;2.17;;;19.20;99.90;;;;;;4972729;28;20308;-74
2023/10/14 02:15:10;;;;;;;3.85;2.53;;;19.20;99.90;;;;;;4972328;28;20535;-75
2023/10/14 02:17:36;;;;;;;5.63;2.58;;;19.10;99.90;;;;;;4972135;28;20177;-73
2023/10/14 02:20:20;;;;;;;5.78;2.22;;;19.10;99.90;;;;;;4977024;28;20206;-74
2023/10/14 02:22:49;;;;;;;4.88;2.83;;;19.10;99.90;;;;;;4959218;28;20209;-75
2023/10/14 02:25:16;;;;;;;8.38;2.40;;;19.10;99.90;;;;;;4975516;28;20275;-75
2023/10/14 02:27:43;;;;;;;4.15;2.17;;;19.10;99.90;;;;;;4976279;28;20210;-75
2023/10/14 02:30:10;;;;;;;6.50;2.70;;;19.00;99.90;;;;;;4978346;28;20249;-75
2023/10/14 02:32:36;;;;;;;7.80;2.70;;;19.10;99.90;;;;;;4975003;28;20675;-75
2023/10/14 02:35:02;;;;;;;3.15;2.40;;;19.00;99.90;;;;;;4977375;28;20285;-74
2023/10/14 02:37:27;;;;;;;5.22;2.42;;;19.00;99.90;;;;;;4961284;28;20301;-75
2023/10/14 02:39:53;;;;;;;6.07;2.80;;;19.00;99.90;;;;;;4974582;28;20202;-75
2023/10/14 02:42:18;;;;;;;3.33;2.13;;;19.00;99.90;;;;;;4971843;28;20191;-76
2023/10/14 02:44:46;;;;;;;4.78;2.40;;;19.10;99.90;;;;;;4973982;28;20327;-76
2023/10/14 02:47:13;;;;;;;4.00;2.20;;;19.10;99.90;;;;;;4969822;28;20225;-76
2023/10/14 02:49:40;;;;;;;6.10;2.17;;;19.10;99.90;;;;;;4975471;28;20233;-76
2023/10/14 02:52:28;;;;;;;4.82;2.35;;;19.10;99.90;;;;;;4975796;28;20722;-76
2023/10/14 02:54:55;;;;;;;4.60;2.53;;;19.10;99.90;;;;;;4973483;28;20213;-74
2023/10/14 02:57:28;;;;;;;3.90;2.25;;;19.20;99.90;;;;;;4982632;28;20173;-77
2023/10/14 02:59:57;;;;;;;3.90;2.70;;;19.20;99.90;;;;;;4972228;28;20178;-77
2023/10/14 03:05:32;;;;;;;4.78;2.88;;;19.30;99.90;;;;;;4976313;28;20229;-77
2023/10/14 03:07:50;;;;;;;3.17;2.00;;;19.30;99.90;;;;;;4976674;28;20217;-74
2023/10/14 03:10:25;;;;;;;5.18;2.15;;;19.30;99.90;;;;;;4967195;28;20218;-77
2023/10/14 03:12:53;;;;;;;4.05;2.20;;;19.40;99.90;;;;;;4976895;28;20217;-73
2023/10/14 03:15:22;;;;;;;6.55;2.40;;;19.40;99.90;;;;;;4974723;28;20173;-71
2023/10/14 03:17:56;;;;;;;3.28;2.15;;;19.50;99.90;;;;;;4976566;28;20201;-73
2023/10/14 03:22:58;;;;;;;3.25;2.35;;;19.50;99.90;;;;;;4977443;28;20214;-73
2023/10/14 03:25:24;;;;;;;6.65;2.58;;;19.50;99.90;;;;;;4976120;28;20214;-73
2023/10/14 03:28:06;;;;;;;3.28;2.65;;;19.60;99.90;;;;;;4967973;28;20222;-74
2023/10/14 03:30:37;;;;;;;4.72;1.90;;;19.60;99.90;;;;;;4973849;28;20217;-74
2023/10/14 03:33:12;;;;;;;4.75;2.30;;;19.60;99.90;;;;;;4973410;28;20202;-76
2023/10/14 03:35:38;;;;;;;3.95;2.30;;;19.60;99.90;;;;;;4976400;28;20205;-74
2023/10/14 03:41:04;;;;;;;6.90;2.70;;;19.70;99.90;;;;;;4976817;28;20276;-74
2023/10/14 03:43:31;;;;;;;6.15;2.55;;;19.80;99.90;;;;;;4978654;28;20213;-75
2023/10/14 03:46:03;;;;;;;4.40;2.72;;;19.80;99.90;;;;;;4979801;28;20218;-75
2023/10/14 03:48:35;;;;;;;5.65;2.78;;;19.90;99.90;;;;;;4968662;28;20226;-74
2023/10/14 03:51:04;;;;;;;5.97;2.78;;;19.80;99.90;;;;;;4978013;28;20293;-73
2023/10/14 03:53:33;;;;;;;6.97;3.10;;;19.80;99.90;;;;;;4973607;28;20699;-75
2023/10/14 03:56:10;;;;;;;7.40;2.70;;;19.80;99.90;;;;;;4974431;28;20430;-75
2023/10/14 03:58:41;;;;;;;5.25;2.80;;;19.90;99.90;;;;;;4974596;28;20688;-74
2023/10/14 04:01:07;;;;;;;5.95;2.75;;;19.90;99.90;;;;;;4974627;28;20213;-74
2023/10/14 04:03:43;;;;;;;4.97;2.47;;;19.90;99.90;;;;;;4970966;28;20706;-74
2023/10/14 04:06:09;;;;;;;5.55;2.83;;;20.00;99.90;;;;;;4968111;28;20266;-74
2023/10/14 04:08:47;;;;;;;5.15;2.58;;;19.90;99.90;;;;;;4970901;28;20206;-75
2023/10/14 04:11:25;;;;;;;4.88;2.90;;;20.00;99.90;;;;;;4979906;28;20229;-75
2023/10/14 04:14:03;;;;;;;5.18;2.65;;;20.00;99.90;;;;;;4979113;28;20237;-75
2023/10/14 04:19:44;;;;;;;4.55;2.65;;;20.00;99.90;;;;;;4980069;28;20193;-76
2023/10/14 04:22:27;;;;;;;6.03;2.53;;;20.00;99.90;;;;;;4980003;28;20677;-76
2023/10/14 04:25:06;;;;;;;7.03;3.10;;;20.00;99.90;;;;;;4977776;28;20217;-75
2023/10/14 04:27:35;;;;;;;8.35;2.75;;;20.00;99.90;;;;;;4974035;28;20202;-76
2023/10/14 04:30:11;;;;;;;6.97;3.13;;;20.00;99.90;;;;;;4976970;28;20174;-76
2023/10/14 04:32:47;;;;;;;5.10;2.90;;;20.00;99.90;;;;;;4974424;28;20209;-75
2023/10/14 04:35:25;;;;;;;5.00;3.05;;;20.00;99.90;;;;;;4974804;28;20236;-75
2023/10/14 04:37:52;;;;;;;7.07;2.70;;;20.00;99.90;;;;;;4972482;28;20210;-76
2023/10/14 04:43:14;;;;;;;6.65;3.25;;;20.10;99.90;;;;;;4969126;28;20626;-75
2023/10/14 04:51:08;;;;;;;6.47;2.92;;;20.20;99.90;;;;;;4980717;28;20617;-74
2023/10/14 04:53:34;;;;;;;6.55;3.20;;;20.10;99.90;;;;;;4980124;28;20311;-74
2023/10/14 04:56:09;;;;;;;6.13;3.08;;;20.00;99.90;;;;;;4978977;28;20212;-74
2023/10/14 04:58:40;;;;;;;5.05;2.88;;;19.90;99.90;;;;;;4971299;28;20305;-74
2023/10/14 05:01:09;;;;;;;5.82;3.15;;;19.70;99.90;;;;;;4978017;28;20218;-76
2023/10/14 05:03:35;;;;;;;8.10;4.32;;;19.40;99.90;;;;;;4967575;28;20210;-74
2023/10/14 05:06:14;;;;;;;7.13;3.75;;;18.80;99.90;;;;;;4974865;28;20179;-75
2023/10/14 05:08:51;;;;;;;8.18;3.38;;;18.40;99.90;;;;;;4972256;28;20241;-77
2023/10/14 05:11:18;;;;;;;8.13;3.63;;;18.00;99.90;;;;;;4971995;28;20205;-75
2023/10/14 05:16:29;;;;;;;6.70;3.58;;;17.80;99.90;;;;;;4974180;28;20200;-74
2023/10/14 05:18:59;;;;;;;9.80;4.00;;;17.70;99.90;;;;;;4962396;28;20210;-74
2023/10/14 05:22:37;;;;;;;6.13;3.75;;;17.60;99.90;;;;;;4965063;28;20230;-75
2023/10/14 05:24:23;;;;;;;7.78;2.88;;;17.60;99.90;;;;;;4980421;28;20203;-75
2023/10/14 05:26:58;;;;;;;6.45;3.20;;;17.50;99.90;;;;;;4975804;28;20543;-75
2023/10/14 05:29:26;;;;;;;5.38;2.92;;;17.50;99.90;;;;;;4975021;28;20213;-75
2023/10/14 05:31:52;;;;;;;4.18;2.22;;;17.50;99.90;;;;;;4978104;28;20235;-75
2023/10/14 05:34:24;;;;;;;3.97;2.42;;;17.40;99.90;;;;;;4980284;28;20247;-74
2023/10/14 05:36:55;;;;;;;4.88;1.80;;;17.40;99.90;;;;;;4968055;28;20218;-75
2023/10/14 05:39:21;;;;;;;4.20;1.67;;;17.40;99.90;;;;;;4975190;28;20181;-75
2023/10/14 05:41:58;;;;;;;3.60;1.75;;;17.20;99.90;;;;;;4972578;28;20281;-75
2023/10/14 05:44:27;;;;;;;1.77;0.88;;;17.30;99.90;;;;;;4972596;28;20699;-75
2023/10/14 05:46:55;;;;;;;1.38;0.85;;;17.00;99.90;;;;;;4971925;28;20234;-76
2023/10/14 05:49:25;;;;;;;0.98;0.73;;;16.60;99.90;;;;;;4969820;28;20213;-75
2023/10/14 05:51:54;;;;;;;0.43;0.40;;;16.40;99.90;;;;;;4972052;28;20301;-75
2023/10/14 05:54:23;;;;;;;0.60;0.50;;;16.20;99.90;;;;;;4971952;28;20231;-75
2023/10/14 05:56:51;;;;;;;1.08;0.63;;;16.20;99.90;;;;;;4971731;28;20656;-75
2023/10/14 05:59:17;;;;;;;2.80;0.68;;;16.10;99.90;;;;;;4974233;28;20984;-75
2023/10/14 06:01:46;;;;;;;0.85;0.60;;;15.90;99.90;;;;;;4980010;28;20225;-75
2023/10/14 06:04:14;;;;;;;1.02;0.70;;;15.90;99.90;;;;;;4978963;28;20211;-73
2023/10/14 06:06:40;;;;;;;0.65;0.40;;;15.90;99.90;;;;;;4972466;28;20237;-75
2023/10/14 06:09:08;;;;;;;0.38;0.38;;;15.80;99.90;;;;;;4969918;28;20700;-75
2023/10/14 06:11:33;;;;;;;0.98;0.50;;;15.70;99.90;;;;;;4975031;28;20653;-76
2023/10/14 06:14:02;;;;;;;4.75;0.77;;;15.70;99.90;;;;;;4975752;28;20229;-74
2023/10/14 06:16:29;;;;;;;0.52;0.40;;;15.70;99.90;;;;;;4978448;28;20197;-75
2023/10/14 06:18:56;;;;;;;0.90;0.40;;;15.60;99.90;;;;;;4974121;28;20202;-75
2023/10/14 06:21:27;;;;;;;1.65;0.38;;;15.50;99.90;;;;;;4974825;28;20255;-75
2023/10/14 06:23:55;;;;;;;0.32;0.32;;;15.50;99.90;;;;;;4974885;28;20181;-75
2023/10/14 06:26:21;;;;;;;1.15;0.40;;;15.40;99.90;;;;;;4971849;28;20208;-76
2023/10/14 06:28:49;;;;;;;5.05;0.98;;;15.30;99.90;;;;;;4966961;28;20215;-75
2023/10/14 06:31:18;;;;;;;2.78;0.60;;;15.30;99.90;;;;;;4969602;28;20237;-74
2023/10/14 06:33:44;;;;;;;0.75;0.40;;;15.30;99.90;;;;;;4969060;28;20262;-74
2023/10/14 06:36:17;;;;;;;1.02;0.60;;;15.30;99.90;;;;;;4971741;28;20597;-75
2023/10/14 06:38:46;;;;;;;1.35;0.40;;;15.40;99.90;;;;;;4978605;28;20177;-75
2023/10/14 06:41:18;;;;;;;1.17;0.45;;;15.40;99.90;;;;;;4979399;28;20280;-75
2023/10/14 06:43:55;;;;;;;1.13;0.60;;;15.40;99.90;;;;;;4978531;28;20259;-75
2023/10/14 06:46:21;;;;;;;2.65;1.00;;;15.50;99.90;;;;;;4977211;28;20210;-74
2023/10/14 06:48:52;;;;;;;1.90;1.00;;;15.40;99.90;;;;;;4976763;28;20566;-74
2023/10/14 06:51:19;;;;;;;2.05;0.77;;;15.50;99.90;;;;;;4974934;28;20260;-75
2023/10/14 06:53:45;;;;;;;0.70;0.52;;;15.50;99.90;;;;;;4964035;28;20182;-74
2023/10/14 06:56:11;;;;;;;1.70;0.80;;;15.50;99.90;;;;;;4972570;28;20356;-74
2023/10/14 06:58:39;;;;;;;1.27;1.10;;;15.50;99.90;;;;;;4973143;28;20280;-74
2023/10/14 07:01:05;;;;;;;0.98;0.55;;;15.50;99.90;;;;;;4972077;28;20841;-74
2023/10/14 07:03:31;;;;;;;1.67;0.47;;;15.60;99.90;;;;;;4972558;28;20198;-73
2023/10/14 07:05:57;;;;;;;1.30;0.50;;;15.50;99.90;;;;;;4970201;28;20262;-73
2023/10/14 07:08:24;;;;;;;0.82;0.50;;;15.40;99.90;;;;;;4965520;28;20237;-77
2023/10/14 07:10:51;;;;;;;1.73;0.70;;;15.40;99.90;;;;;;4970549;28;20743;-74
2023/10/14 07:13:23;;;;;;;2.08;0.57;;;15.50;99.90;;;;;;4974614;28;20262;-75
2023/10/14 07:15:50;;;;;;;0.55;0.50;;;15.50;99.90;;;;;;4977425;28;20212;-75
2023/10/14 07:18:23;;;;;;;2.15;0.50;;;15.50;99.90;;;;;;4977175;28;20293;-76
2023/10/14 07:21:12;;;;;;;3.33;0.80;;;15.40;99.90;;;;;;4977004;28;20205;-75
2023/10/14 07:23:39;;;;;;;1.63;0.77;;;15.50;99.90;;;;;;4973020;28;20217;-75
2023/10/14 07:26:09;;;;;;;0.57;0.40;;;15.40;99.90;;;;;;4960976;28;20242;-75
2023/10/14 07:28:36;;;;;;;1.42;0.50;;;15.40;99.90;;;;;;4971981;28;20237;-75
2023/10/14 07:31:02;;;;;;;0.63;0.40;;;15.50;99.90;;;;;;4972829;28;20273;-75
2023/10/14 07:33:29;;;;;;;1.27;0.60;;;15.50;99.90;;;;;;4977764;28;20202;-75
2023/10/14 07:35:57;;;;;;;0.45;0.45;;;15.40;99.90;;;;;;4977457;28;20178;-75
2023/10/14 07:38:23;;;;;;;1.45;0.63;;;15.40;99.90;;;;;;4975710;28;20705;-75
2023/10/14 07:40:49;;;;;;;0.80;0.60;;;15.30;99.90;;;;;;4973688;28;20244;-74
2023/10/14 07:43:15;;;;;;;1.73;0.57;;;15.20;99.90;;;;;;4975095;28;20253;-77
2023/10/14 07:45:46;;;;;;;1.10;0.63;;;15.30;99.90;;;;;;4974775;28;20237;-75
2023/10/14 07:48:13;;;;;;;0.98;0.75;;;15.40;99.90;;;;;;4966336;28;20206;-75
2023/10/14 07:50:46;;;;;;;1.17;0.57;;;15.70;99.90;;;;;;4972026;28;20644;-75
2023/10/14 07:53:15;;;;;;;0.93;0.50;;;16.80;99.90;;;;;;4979577;28;20282;-75
2023/10/14 07:55:41;;;;;;;5.55;0.85;;;18.70;99.90;;;;;;4981899;28;20198;-76
2023/10/14 07:58:10;;;;;;;2.88;0.60;;;20.20;99.90;;;;;;4979201;28;20246;-76
2023/10/14 08:00:41;;;;;;;1.98;0.75;;;21.20;99.90;;;;;;4973911;28;20228;-75
2023/10/14 08:03:14;;;;;;;2.80;0.57;;;21.50;99.90;;;;;;4977619;28;20182;-76
2023/10/14 08:05:41;;;;;;;1.95;0.90;;;21.70;99.90;;;;;;4974553;28;20672;-76
2023/10/14 08:08:10;;;;;;;1.80;0.63;;;21.30;99.90;;;;;;4962081;28;20240;-76
2023/10/14 08:10:41;;;;;;;2.63;0.80;;;21.90;99.90;;;;;;4974229;28;20263;-77
2023/10/14 08:13:08;;;;;;;2.03;0.75;;;21.70;99.90;;;;;;4974963;28;20206;-76
2023/10/14 08:15:35;;;;;;;1.08;0.60;;;20.90;99.90;;;;;;4979230;28;20225;-76
2023/10/14 08:18:04;;;;;;;2.53;0.90;;;20.10;99.90;;;;;;4973788;28;20720;-75
2023/10/14 08:20:31;;;;;;;4.93;1.92;;;19.30;99.90;;;;;;4973933;28;20219;-76
2023/10/14 08:22:57;;;;;;;2.33;1.23;;;19.40;99.90;;;;;;4976122;28;20241;-77
2023/10/14 08:25:25;;;;;;;4.00;1.20;;;18.70;99.90;;;;;;4975195;28;20221;-77
2023/10/14 08:27:51;;;;;;;2.35;0.75;;;18.80;99.90;;;;;;4982991;28;20352;-76
2023/10/14 08:30:17;;;;;;;1.33;0.50;;;18.90;99.90;;;;;;4978132;28;20654;-76
2023/10/14 08:32:43;;;;;;;4.13;1.10;;;19.10;99.90;;;;;;4980175;28;20203;-75
2023/10/14 08:35:17;;;;;;;1.25;0.80;;;19.40;99.90;;;;;;4980100;28;20744;-78
2023/10/14 08:37:47;;;;;;;0.95;0.73;;;19.20;99.90;;;;;;4978825;28;20260;-76
2023/10/14 08:40:16;;;;;;;3.38;0.90;;;19.30;99.90;;;;;;4976303;28;20210;-75
2023/10/14 08:42:48;;;;;;;5.55;1.60;;;19.20;99.90;;;;;;4976646;28;20258;-78
2023/10/14 08:45:16;;;;;;;3.90;1.40;;;19.50;99.90;;;;;;4977169;28;20253;-75
2023/10/14 08:47:50;;;;;;;1.38;0.73;;;19.50;99.90;;;;;;4977199;28;20185;-77
2023/10/14 08:50:18;;;;;;;4.47;1.15;;;18.70;99.90;;;;;;4977128;28;20214;-76
2023/10/14 08:52:49;;;;;;;2.92;1.00;;;18.80;99.90;;;;;;4968170;28;20729;-76
2023/10/14 08:55:15;;;;;;;3.05;0.93;;;18.90;99.90;;;;;;4970052;28;20214;-75
2023/10/14 08:57:44;;;;;;;4.53;0.75;;;18.70;99.90;;;;;;4973325;28;20213;-77
2023/10/14 09:00:19;;;;;;;1.60;0.80;;;18.50;99.90;;;;;;4971900;28;20196;-76
2023/10/14 09:02:48;;;;;;;3.17;1.02;;;18.90;99.90;;;;;;4976549;28;20304;-75
2023/10/14 09:05:16;;;;;;;7.05;1.33;;;19.00;99.90;;;;;;4978595;28;20210;-76
2023/10/14 09:07:43;;;;;;;1.58;1.10;;;18.70;99.90;;;;;;4982884;28;20546;-76
2023/10/14 09:10:09;;;;;;;2.60;1.10;;;18.20;99.90;;;;;;4964288;28;20209;-75
2023/10/14 09:12:35;;;;;;;3.13;1.27;;;18.00;99.90;;;;;;4979314;28;20221;-77
2023/10/14 09:15:01;;;;;;;2.85;1.35;;;17.90;99.90;;;;;;4976843;28;20194;-77
2023/10/14 09:17:28;;;;;;;2.83;0.90;;;17.90;99.90;;;;;;4976172;28;20195;-74
2023/10/14 09:19:54;;;;;;;3.58;1.00;;;17.90;99.90;;;;;;4975449;28;20209;-77
2023/10/14 09:22:27;;;;;;;4.40;1.00;;;17.90;99.90;;;;;;4988665;28;20296;-76
2023/10/14 09:24:58;;;;;;;4.63;1.05;;;18.00;99.90;;;;;;4975802;28;20202;-76
2023/10/14 09:27:26;;;;;;;5.80;0.80;;;18.20;99.90;;;;;;4968350;28;20471;-76
2023/10/14 09:29:57;;;;;;;5.18;1.05;;;18.10;99.90;;;;;;4969166;28;20213;-76
2023/10/14 09:32:23;;;;;;;5.30;1.13;;;18.00;99.90;;;;;;4969387;28;20289;-76
2023/10/14 09:34:51;;;;;;;10.35;1.40;;;17.80;99.90;;;;;;4967882;28;20199;-76
2023/10/14 09:37:17;;;;;;;5.10;1.08;;;18.00;99.90;;;;;;4970918;28;20685;-77
2023/10/14 09:39:48;;;;;;;7.43;1.95;;;17.90;99.90;;;;;;4974792;28;20201;-75
2023/10/14 09:42:15;;;;;;;2.35;1.00;;;17.50;99.90;;;;;;4975081;28;20636;-75
2023/10/14 09:44:45;;;;;;;2.63;0.98;;;17.60;99.90;;;;;;4980502;28;20201;-76
2023/10/14 09:47:19;;;;;;;3.83;1.02;;;17.50;99.90;;;;;;4970507;28;20298;-76
2023/10/14 09:49:46;;;;;;;4.70;1.02;;;17.50;99.90;;;;;;4965714;28;20633;-75
2023/10/14 09:52:15;;;;;;;4.53;1.40;;;17.90;99.90;;;;;;4972158;28;20222;-76
2023/10/14 09:54:42;;;;;;;6.25;1.42;;;18.20;99.90;;;;;;4977118;28;20212;-76
2023/10/14 09:57:15;;;;;;;4.20;1.30;;;18.60;99.90;;;;;;4974448;28;20177;-76
2023/10/14 09:59:42;;;;;;;6.57;1.50;;;18.80;99.90;;;;;;4975488;28;20166;-76
2023/10/14 10:02:10;;;;;;;8.27;1.40;;;19.10;99.90;;;;;;4973520;28;20230;-76
2023/10/14 10:04:45;;;;;;;4.75;1.30;;;18.80;99.90;;;;;;4975250;28;20213;-76
2023/10/14 10:07:30;;;;;;;5.22;1.10;;;18.80;99.90;;;;;;4969734;28;20695;-74
2023/10/14 10:10:13;;;;;;;6.50;1.00;;;19.30;99.90;;;;;;4970244;28;20222;-76
2023/10/14 10:12:41;;;;;;;3.15;1.20;;;19.50;99.90;;;;;;4968968;28;20225;-76
2023/10/14 10:15:08;;;;;;;4.93;1.80;;;19.60;99.90;;;;;;4970173;28;20704;-76
2023/10/14 10:17:38;;;;;;;3.15;1.20;;;19.90;99.90;;;;;;4975066;28;20166;-76
2023/10/14 10:20:10;;;;;;;4.75;1.30;;;19.80;99.90;;;;;;4978795;28;20208;-76
2023/10/14 10:22:43;;;;;;;2.97;1.17;;;19.60;99.90;;;;;;4977827;28;20233;-76
2023/10/14 10:25:15;;;;;;;5.90;2.00;;;19.80;99.90;;;;;;4976536;28;20241;-76
2023/10/14 10:27:42;;;;;;;6.60;1.75;;;20.20;99.90;;;;;;4978824;28;20677;-76
2023/10/14 10:30:12;;;;;;;2.22;1.27;;;20.20;99.90;;;;;;4973131;28;20178;-77
2023/10/14 10:32:38;;;;;;;4.28;1.50;;;20.20;99.90;;;;;;4977202;28;20611;-77
2023/10/14 10:35:06;;;;;;;5.75;1.40;;;20.00;99.90;;;;;;4969665;28;20670;-72
2023/10/14 10:37:50;;;;;;;5.00;1.27;;;19.90;99.90;;;;;;4960970;28;20229;-76
2023/10/14 10:40:27;;;;;;;4.38;1.00;;;19.70;99.90;;;;;;4970653;28;20762;-76
2023/10/14 10:43:09;;;;;;;3.80;0.75;;;19.30;99.90;;;;;;4972819;28;20555;-76
2023/10/14 10:45:37;;;;;;;2.10;0.73;;;19.20;99.90;;;;;;4970193;28;20210;-76
2023/10/14 10:48:07;;;;;;;2.75;0.95;;;19.50;99.90;;;;;;4970987;28;20190;-76
2023/10/14 10:50:37;;;;;;;4.30;0.90;;;19.40;99.90;;;;;;4971894;28;20725;-76
2023/10/14 10:53:06;;;;;;;5.63;0.98;;;18.90;99.90;;;;;;4971438;28;20206;-76
2023/10/14 10:55:36;;;;;;;5.35;1.27;;;18.90;99.90;;;;;;4977866;28;20206;-76
2023/10/14 10:58:02;;;;;;;3.58;1.38;;;19.20;99.90;;;;;;4980600;28;20684;-76
2023/10/14 11:00:32;;;;;;;7.93;1.20;;;19.60;99.90;;;;;;4977635;28;20214;-76
2023/10/14 11:03:00;;;;;;;6.75;1.60;;;19.50;99.90;;;;;;4994307;28;20220;-77
2023/10/14 11:05:26;;;;;;;4.18;1.08;;;19.70;99.90;;;;;;4975600;28;20215;-76
2023/10/14 11:07:53;;;;;;;5.32;1.33;;;19.40;99.90;;;;;;4965656;28;20202;-77
2023/10/14 11:10:26;;;;;;;5.15;0.98;;;19.40;99.90;;;;;;4976956;28;20199;-76
2023/10/14 11:12:55;;;;;;;3.90;1.15;;;19.00;99.90;;;;;;4968353;28;20201;-77
2023/10/14 11:15:25;;;;;;;10.40;1.60;;;18.70;99.90;;;;;;4975344;28;20641;-76
2023/10/14 11:17:58;;;;;;;4.97;2.20;;;18.50;99.90;;;;;;4978859;28;20530;-77
2023/10/14 11:20:40;;;;;;;4.43;2.08;;;18.10;99.90;;;;;;4974645;28;20214;-76
2023/10/14 11:23:08;;;;;;;5.25;1.90;;;18.30;99.90;;;;;;4973362;28;20204;-76
2023/10/14 11:25:40;;;;;;;5.28;1.27;;;18.50;99.90;;;;;;4975877;28;20198;-76
2023/10/14 11:28:07;;;;;;;6.07;1.45;;;18.30;99.90;;;;;;4973811;28;20206;-74
2023/10/14 11:30:33;;;;;;;5.90;3.45;;;18.40;99.90;;;;;;4978789;28;20305;-74
2023/10/14 11:32:59;;;;;;;2.30;1.00;;;18.60;99.90;;;;;;4985330;28;20265;-74
2023/10/14 11:35:29;;;;;;;5.60;1.13;;;18.60;99.90;;;;;;4978359;28;20578;-75
2023/10/14 11:38:00;;;;;;;6.13;1.90;;;18.40;99.90;;;;;;4965751;28;20206;-75
2023/10/14 11:40:32;;;;;;;6.90;1.00;;;18.40;99.90;;;;;;4975112;28;20224;-75
2023/10/14 11:42:58;;;;;;;5.55;1.15;;;18.50;99.90;;;;;;4974729;28;20641;-75
2023/10/14 11:45:24;;;;;;;3.50;1.20;;;18.50;99.90;;;;;;4976789;28;20240;-75
2023/10/14 11:47:52;;;;;;;6.03;1.38;;;18.40;99.90;;;;;;4980456;28;20182;-75
2023/10/14 11:50:18;;;;;;;5.80;1.27;;;18.30;99.90;;;;;;4978405;28;20209;-76
2023/10/14 11:52:47;;;;;;;5.97;1.55;;;18.00;99.90;;;;;;4976366;28;20253;-75
2023/10/14 11:55:16;;;;;;;2.63;0.73;;;17.90;99.90;;;;;;4976845;28;20195;-75
2023/10/14 11:57:46;;;;;;;5.85;1.55;;;18.00;99.90;;;;;;4975325;28;20213;-75
2023/10/14 12:00:20;;;;;;;3.97;1.10;;;18.00;99.90;;;;;;4973916;28;20174;-75
2023/10/14 12:02:49;;;;;;;3.42;1.20;;;17.60;99.90;;;;;;4973973;28;20739;-75
2023/10/14 12:05:19;;;;;;;7.60;2.90;;;17.50;99.90;;;;;;4970575;28;20416;-75
2023/10/14 12:07:49;;;;;;;7.18;1.45;;;17.10;99.90;;;;;;4974084;28;20216;-76
2023/10/14 12:10:17;;;;;;;5.43;1.60;;;17.10;99.90;;;;;;4968913;28;20270;-76
2023/10/14 12:12:43;;;;;;;7.47;0.88;;;17.10;99.90;;;;;;4973939;28;20218;-76
2023/10/14 12:15:09;;;;;;;4.78;1.10;;;17.30;99.90;;;;;;4983751;28;20181;-77
2023/10/14 12:17:35;;;;;;;1.75;0.95;;;17.60;99.90;;;;;;4977226;28;20219;-76
2023/10/14 12:20:10;;;;;;;8.35;1.20;;;17.90;99.90;;;;;;4981536;28;20189;-76
2023/10/14 12:22:39;;;;;;;8.85;1.30;;;18.00;99.90;;;;;;4975343;28;20210;-76
2023/10/14 12:25:06;;;;;;;4.57;1.35;;;18.30;99.90;;;;;;4978147;28;20216;-77
2023/10/14 12:27:33;;;;;;;6.63;1.60;;;18.30;99.90;;;;;;4964478;28;20280;-76
2023/10/14 12:30:02;;;;;;;2.70;1.05;;;18.40;99.90;;;;;;4974637;28;20228;-76
2023/10/14 12:32:32;;;;;;;4.00;1.15;;;18.70;99.90;;;;;;4971568;28;20574;-77
2023/10/14 12:35:06;;;;;;;6.38;1.30;;;18.50;99.90;;;;;;4972819;28;20666;-76
2023/10/14 12:37:33;;;;;;;4.78;0.95;;;18.20;99.90;;;;;;4971891;28;20213;-77
2023/10/14 12:40:04;;;;;;;3.50;1.25;;;18.10;99.90;;;;;;4973862;28;20202;-78
2023/10/14 12:42:46;;;;;;;4.53;1.13;;;17.90;99.90;;;;;;4973900;28;20297;-78
2023/10/14 12:45:13;;;;;;;7.28;1.15;;;17.80;99.90;;;;;;4981059;28;20169;-77
2023/10/14 12:47:45;;;;;;;3.15;1.50;;;18.10;99.90;;;;;;4958569;28;20182;-72
2023/10/14 12:50:20;;;;;;;3.05;1.20;;;18.30;99.90;;;;;;4973122;28;20742;-73
2023/10/14 12:52:56;;;;;;;7.82;1.17;;;18.40;99.90;;;;;;4973577;28;20206;-76
2023/10/14 12:55:26;;;;;;;6.85;2.22;;;18.30;99.90;;;;;;4967868;28;20351;-76
2023/10/14 12:57:52;;;;;;;5.97;1.70;;;18.30;99.90;;;;;;4966821;28;20313;-78
2023/10/14 13:00:25;;;;;;;5.78;1.20;;;18.10;99.90;;;;;;4969428;28;20251;-76
2023/10/14 13:02:51;;;;;;;2.70;1.00;;;18.00;99.90;;;;;;4974450;28;20711;-77
2023/10/14 13:05:18;;;;;;;4.55;1.70;;;17.90;99.90;;;;;;4984551;28;20668;-76
2023/10/14 13:07:52;;;;;;;3.25;1.15;;;17.80;99.90;;;;;;4959993;28;20206;-77
2023/10/14 13:10:22;;;;;;;5.03;1.15;;;17.80;99.90;;;;;;4965065;28;20341;-75
2023/10/14 13:12:49;;;;;;;8.48;1.65;;;17.60;99.90;;;;;;4969471;28;20206;-74
2023/10/14 13:15:25;;;;;;;3.13;1.75;;;17.80;99.90;;;;;;4969201;28;20214;-74
2023/10/14 13:18:00;;;;;;;5.60;1.63;;;17.80;99.90;;;;;;4968423;28;20256;-77
2023/10/14 13:20:30;;;;;;;4.07;1.48;;;17.60;99.90;;;;;;4962687;28;20229;-81
2023/10/14 13:23:05;;;;;;;5.38;1.23;;;17.80;99.90;;;;;;4971608;28;20283;-77
2023/10/14 13:25:38;;;;;;;3.53;1.10;;;17.80;99.90;;;;;;4956280;28;20194;-75
2023/10/14 13:28:08;;;;;;;4.70;1.17;;;17.60;99.90;;;;;;4973785;28;20198;-74
2023/10/14 13:30:45;;;;;;;5.60;1.30;;;17.30;99.90;;;;;;4964158;28;20296;-74
2023/10/14 13:33:12;;;;;;;7.22;1.20;;;17.50;99.90;;;;;;4972229;28;20161;-73